sensor_id;sensor_type;location;lat;lon;timestamp;pressure;altitude;pressure_sealevel;temperature;humidity
65329;BME280;51941;52.210;5.158;2024-03-02T00:00:38;99714.47;;;8.10;64.92
65329;BME280;51941;52.210;5.158;2024-03-02T00:03:06;99716.78;;;8.12;65.66
65329;BME280;51941;52.210;5.158;2024-03-02T00:05:35;99711.38;;;7.94;66.93
65329;BME280;51941;52.210;5.158;2024-03-02T00:08:04;99729.72;;;7.85;67.00
65329;BME280;51941;52.210;5.158;2024-03-02T00:10:36;99728.91;;;7.77;67.31
65329;BME280;51941;52.210;5.158;2024-03-02T00:13:05;99738.56;;;7.85;66.89
65329;BME280;51941;52.210;5.158;2024-03-02T00:15:46;99751.56;;;7.87;66.72
65329;BME280;51941;52.210;5.158;2024-03-02T00:18:18;99763.06;;;7.95;65.94
65329;BME280;51941;52.210;5.158;2024-03-02T00:20:45;99787.59;;;7.89;66.24
65329;BME280;51941;52.210;5.158;2024-03-02T00:23:14;99795.22;;;7.91;66.50
65329;BME280;51941;52.210;5.158;2024-03-02T00:25:44;99820.56;;;8.01;66.46
65329;BME280;51941;52.210;5.158;2024-03-02T00:28:17;99825.16;;;8.00;67.12
65329;BME280;51941;52.210;5.158;2024-03-02T00:30:58;99827.06;;;7.96;68.28
65329;BME280;51941;52.210;5.158;2024-03-02T00:33:30;99822.00;;;7.80;68.61
65329;BME280;51941;52.210;5.158;2024-03-02T00:35:57;99821.94;;;7.69;69.18
65329;BME280;51941;52.210;5.158;2024-03-02T00:38:25;99826.06;;;7.52;70.84
65329;BME280;51941;52.210;5.158;2024-03-02T00:40:52;99840.59;;;7.51;70.12
65329;BME280;51941;52.210;5.158;2024-03-02T00:43:39;99832.44;;;7.37;72.47
65329;BME280;51941;52.210;5.158;2024-03-02T00:46:07;99829.72;;;7.33;72.49
65329;BME280;51941;52.210;5.158;2024-03-02T00:48:36;99832.34;;;7.23;73.47
65329;BME280;51941;52.210;5.158;2024-03-02T00:51:03;99832.75;;;7.28;71.46
65329;BME280;51941;52.210;5.158;2024-03-02T00:53:31;99829.56;;;7.12;73.14
65329;BME280;51941;52.210;5.158;2024-03-02T00:55:58;99825.31;;;7.07;73.56
65329;BME280;51941;52.210;5.158;2024-03-02T00:58:26;99831.81;;;7.03;74.68
65329;BME280;51941;52.210;5.158;2024-03-02T01:00:52;99831.75;;;6.99;75.51
65329;BME280;51941;52.210;5.158;2024-03-02T01:03:19;99835.22;;;7.00;74.42
65329;BME280;51941;52.210;5.158;2024-03-02T01:05:47;99849.63;;;6.88;74.80
65329;BME280;51941;52.210;5.158;2024-03-02T01:08:13;99835.00;;;6.78;75.92
65329;BME280;51941;52.210;5.158;2024-03-02T01:10:40;99833.56;;;6.88;75.10
65329;BME280;51941;52.210;5.158;2024-03-02T01:13:07;99821.31;;;6.83;75.33
65329;BME280;51941;52.210;5.158;2024-03-02T01:15:34;99829.97;;;6.73;75.82
65329;BME280;51941;52.210;5.158;2024-03-02T01:18:01;99843.84;;;6.82;74.94
65329;BME280;51941;52.210;5.158;2024-03-02T01:20:28;99848.84;;;6.84;74.88
65329;BME280;51941;52.210;5.158;2024-03-02T01:22:56;99849.03;;;6.64;76.35
65329;BME280;51941;52.210;5.158;2024-03-02T01:25:23;99850.66;;;6.76;75.32
65329;BME280;51941;52.210;5.158;2024-03-02T01:27:50;99858.38;;;6.81;75.04
65329;BME280;51941;52.210;5.158;2024-03-02T01:30:16;99860.53;;;6.68;76.03
65329;BME280;51941;52.210;5.158;2024-03-02T01:32:43;99857.09;;;6.68;76.12
65329;BME280;51941;52.210;5.158;2024-03-02T01:35:10;99850.22;;;6.70;76.50
65329;BME280;51941;52.210;5.158;2024-03-02T01:37:36;99835.31;;;6.69;75.98
65329;BME280;51941;52.210;5.158;2024-03-02T01:40:06;99858.59;;;6.65;76.42
65329;BME280;51941;52.210;5.158;2024-03-02T01:42:35;99855.50;;;6.63;76.46
65329;BME280;51941;52.210;5.158;2024-03-02T01:45:03;99847.28;;;6.45;78.02
65329;BME280;51941;52.210;5.158;2024-03-02T01:47:30;99846.06;;;6.39;78.23
65329;BME280;51941;52.210;5.158;2024-03-02T01:49:57;99858.78;;;6.49;77.52
65329;BME280;51941;52.210;5.158;2024-03-02T01:52:25;99855.66;;;6.40;77.99
65329;BME280;51941;52.210;5.158;2024-03-02T01:54:51;99857.53;;;6.36;78.06
65329;BME280;51941;52.210;5.158;2024-03-02T01:57:19;99870.34;;;6.23;78.67
65329;BME280;51941;52.210;5.158;2024-03-02T01:59:46;99875.94;;;6.11;79.26
65329;BME280;51941;52.210;5.158;2024-03-02T02:02:14;99878.13;;;6.36;77.87
65329;BME280;51941;52.210;5.158;2024-03-02T02:04:40;99876.16;;;6.29;78.33
65329;BME280;51941;52.210;5.158;2024-03-02T02:07:07;99869.28;;;6.31;78.13
65329;BME280;51941;52.210;5.158;2024-03-02T02:09:34;99868.84;;;6.26;78.99
65329;BME280;51941;52.210;5.158;2024-03-02T02:12:01;99863.53;;;6.29;78.68
65329;BME280;51941;52.210;5.158;2024-03-02T02:14:30;99867.66;;;6.23;79.11
65329;BME280;51941;52.210;5.158;2024-03-02T02:16:57;99873.78;;;6.24;79.34
65329;BME280;51941;52.210;5.158;2024-03-02T02:19:23;99878.00;;;6.25;79.04
65329;BME280;51941;52.210;5.158;2024-03-02T02:21:51;99892.06;;;6.18;79.03
65329;BME280;51941;52.210;5.158;2024-03-02T02:24:18;99868.84;;;6.26;78.83
65329;BME280;51941;52.210;5.158;2024-03-02T02:26:45;99855.47;;;6.26;78.55
65329;BME280;51941;52.210;5.158;2024-03-02T02:29:13;99863.72;;;6.13;78.60
65329;BME280;51941;52.210;5.158;2024-03-02T02:31:40;99850.47;;;6.21;78.91
65329;BME280;51941;52.210;5.158;2024-03-02T02:34:07;99850.88;;;6.23;78.41
65329;BME280;51941;52.210;5.158;2024-03-02T02:36:36;99863.50;;;6.26;78.28
65329;BME280;51941;52.210;5.158;2024-03-02T02:39:06;99865.09;;;6.30;77.71
65329;BME280;51941;52.210;5.158;2024-03-02T02:41:34;99880.91;;;6.12;78.71
65329;BME280;51941;52.210;5.158;2024-03-02T02:44:01;99873.22;;;6.07;79.01
65329;BME280;51941;52.210;5.158;2024-03-02T02:46:27;99868.38;;;6.17;78.57
65329;BME280;51941;52.210;5.158;2024-03-02T02:48:57;99882.53;;;6.21;78.25
65329;BME280;51941;52.210;5.158;2024-03-02T02:51:23;99873.72;;;6.17;78.38
65329;BME280;51941;52.210;5.158;2024-03-02T02:53:50;99861.47;;;6.16;78.19
65329;BME280;51941;52.210;5.158;2024-03-02T02:56:18;99873.91;;;6.04;78.95
65329;BME280;51941;52.210;5.158;2024-03-02T02:58:45;99884.31;;;6.09;78.51
65329;BME280;51941;52.210;5.158;2024-03-02T03:01:12;99877.03;;;6.06;78.95
65329;BME280;51941;52.210;5.158;2024-03-02T03:03:38;99882.28;;;5.99;79.77
65329;BME280;51941;52.210;5.158;2024-03-02T03:06:06;99873.03;;;5.93;79.62
65329;BME280;51941;52.210;5.158;2024-03-02T03:08:34;99875.47;;;6.05;78.63
65329;BME280;51941;52.210;5.158;2024-03-02T03:11:01;99877.69;;;6.00;79.30
65329;BME280;51941;52.210;5.158;2024-03-02T03:13:29;99881.16;;;6.04;78.54
65329;BME280;51941;52.210;5.158;2024-03-02T03:15:56;99877.78;;;6.07;78.51
65329;BME280;51941;52.210;5.158;2024-03-02T03:18:23;99874.47;;;5.87;79.36
65329;BME280;51941;52.210;5.158;2024-03-02T03:20:49;99880.63;;;5.91;78.80
65329;BME280;51941;52.210;5.158;2024-03-02T03:23:16;99883.72;;;5.93;78.99
65329;BME280;51941;52.210;5.158;2024-03-02T03:25:43;99883.38;;;5.98;78.59
65329;BME280;51941;52.210;5.158;2024-03-02T03:28:10;99883.09;;;6.03;78.58
65329;BME280;51941;52.210;5.158;2024-03-02T03:30:38;99882.91;;;5.89;78.96
65329;BME280;51941;52.210;5.158;2024-03-02T03:33:05;99883.72;;;5.93;78.83
65329;BME280;51941;52.210;5.158;2024-03-02T03:35:32;99880.72;;;5.98;78.78
65329;BME280;51941;52.210;5.158;2024-03-02T03:37:59;99886.16;;;6.05;78.26
65329;BME280;51941;52.210;5.158;2024-03-02T03:40:25;99892.59;;;6.01;78.13
65329;BME280;51941;52.210;5.158;2024-03-02T03:42:51;99895.69;;;6.03;77.32
65329;BME280;51941;52.210;5.158;2024-03-02T03:45:18;99895.28;;;6.01;77.67
65329;BME280;51941;52.210;5.158;2024-03-02T03:47:46;99896.84;;;6.05;77.55
65329;BME280;51941;52.210;5.158;2024-03-02T03:50:13;99900.56;;;5.97;77.63
65329;BME280;51941;52.210;5.158;2024-03-02T03:52:40;99900.94;;;5.96;78.07
65329;BME280;51941;52.210;5.158;2024-03-02T03:55:07;99911.25;;;5.97;77.79
65329;BME280;51941;52.210;5.158;2024-03-02T03:57:36;99914.75;;;6.01;77.60
65329;BME280;51941;52.210;5.158;2024-03-02T04:00:03;99910.22;;;6.05;76.98
65329;BME280;51941;52.210;5.158;2024-03-02T04:02:37;99912.91;;;6.05;77.21
65329;BME280;51941;52.210;5.158;2024-03-02T04:05:06;99913.75;;;6.13;77.07
65329;BME280;51941;52.210;5.158;2024-03-02T04:07:35;99919.53;;;6.15;76.94
65329;BME280;51941;52.210;5.158;2024-03-02T04:10:08;99924.50;;;6.17;76.70
65329;BME280;51941;52.210;5.158;2024-03-02T04:12:35;99915.28;;;6.10;76.91
65329;BME280;51941;52.210;5.158;2024-03-02T04:15:03;99930.06;;;6.04;77.16
65329;BME280;51941;52.210;5.158;2024-03-02T04:17:32;99924.00;;;6.07;77.11
65329;BME280;51941;52.210;5.158;2024-03-02T04:19:59;99918.38;;;6.16;76.96
65329;BME280;51941;52.210;5.158;2024-03-02T04:22:27;99914.53;;;6.13;76.85
65329;BME280;51941;52.210;5.158;2024-03-02T04:24:54;99926.44;;;6.20;76.98
65329;BME280;51941;52.210;5.158;2024-03-02T04:27:21;99918.03;;;6.18;76.78
65329;BME280;51941;52.210;5.158;2024-03-02T04:29:48;99912.59;;;6.10;76.34
65329;BME280;51941;52.210;5.158;2024-03-02T04:32:15;99918.53;;;6.00;76.67
65329;BME280;51941;52.210;5.158;2024-03-02T04:34:41;99919.00;;;6.06;77.13
65329;BME280;51941;52.210;5.158;2024-03-02T04:37:09;99920.16;;;6.05;76.78
65329;BME280;51941;52.210;5.158;2024-03-02T04:39:38;99928.47;;;6.00;77.03
65329;BME280;51941;52.210;5.158;2024-03-02T04:42:05;99928.38;;;5.92;77.24
65329;BME280;51941;52.210;5.158;2024-03-02T04:44:32;99923.19;;;6.03;76.93
65329;BME280;51941;52.210;5.158;2024-03-02T04:46:58;99930.38;;;5.99;77.03
65329;BME280;51941;52.210;5.158;2024-03-02T04:49:25;99935.38;;;6.01;76.64
65329;BME280;51941;52.210;5.158;2024-03-02T04:51:52;99930.59;;;5.87;77.46
65329;BME280;51941;52.210;5.158;2024-03-02T04:54:18;99938.44;;;6.03;76.18
65329;BME280;51941;52.210;5.158;2024-03-02T04:56:46;99939.38;;;5.87;76.84
65329;BME280;51941;52.210;5.158;2024-03-02T04:59:15;99940.06;;;5.81;76.39
65329;BME280;51941;52.210;5.158;2024-03-02T05:01:42;99950.44;;;5.63;77.44
65329;BME280;51941;52.210;5.158;2024-03-02T05:04:09;99954.41;;;5.72;76.95
65329;BME280;51941;52.210;5.158;2024-03-02T05:06:37;99956.72;;;5.74;76.86
65329;BME280;51941;52.210;5.158;2024-03-02T05:09:04;99961.03;;;5.56;77.74
65329;BME280;51941;52.210;5.158;2024-03-02T05:11:31;99960.13;;;5.71;76.77
65329;BME280;51941;52.210;5.158;2024-03-02T05:14:17;99954.41;;;5.72;77.02
65329;BME280;51941;52.210;5.158;2024-03-02T05:16:44;99949.84;;;5.73;76.68
65329;BME280;51941;52.210;5.158;2024-03-02T05:19:11;99949.38;;;5.67;76.93
65329;BME280;51941;52.210;5.158;2024-03-02T05:21:40;99960.41;;;5.66;76.39
65329;BME280;51941;52.210;5.158;2024-03-02T05:24:07;99962.56;;;5.57;76.70
65329;BME280;51941;52.210;5.158;2024-03-02T05:26:34;99959.47;;;5.31;77.82
65329;BME280;51941;52.210;5.158;2024-03-02T05:29:01;99962.31;;;5.42;77.05
65329;BME280;51941;52.210;5.158;2024-03-02T05:31:29;99972.25;;;5.42;76.69
65329;BME280;51941;52.210;5.158;2024-03-02T05:33:56;99966.84;;;5.38;76.44
65329;BME280;51941;52.210;5.158;2024-03-02T05:36:23;99958.69;;;5.31;76.67
65329;BME280;51941;52.210;5.158;2024-03-02T05:38:49;99973.94;;;5.30;76.57
65329;BME280;51941;52.210;5.158;2024-03-02T05:41:16;99973.75;;;5.20;77.22
65329;BME280;51941;52.210;5.158;2024-03-02T05:43:43;99982.47;;;5.17;77.25
65329;BME280;51941;52.210;5.158;2024-03-02T05:46:09;99982.13;;;5.18;77.08
65329;BME280;51941;52.210;5.158;2024-03-02T05:48:38;99986.97;;;5.12;77.36
65329;BME280;51941;52.210;5.158;2024-03-02T05:51:05;99984.31;;;5.12;77.16
65329;BME280;51941;52.210;5.158;2024-03-02T05:53:31;99980.56;;;5.17;77.02
65329;BME280;51941;52.210;5.158;2024-03-02T05:55:59;99991.06;;;5.06;77.56
65329;BME280;51941;52.210;5.158;2024-03-02T05:58:25;99975.22;;;5.17;77.10
65329;BME280;51941;52.210;5.158;2024-03-02T06:01:11;99979.25;;;5.07;77.45
65329;BME280;51941;52.210;5.158;2024-03-02T06:03:39;99985.91;;;5.17;77.08
65329;BME280;51941;52.210;5.158;2024-03-02T06:06:06;99994.28;;;4.96;77.65
65329;BME280;51941;52.210;5.158;2024-03-02T06:08:33;99999.97;;;5.14;77.03
65329;BME280;51941;52.210;5.158;2024-03-02T06:11:00;99991.56;;;5.12;77.09
65329;BME280;51941;52.210;5.158;2024-03-02T06:13:27;99996.31;;;5.22;76.81
65329;BME280;51941;52.210;5.158;2024-03-02T06:15:54;99993.41;;;5.31;76.97
65329;BME280;51941;52.210;5.158;2024-03-02T06:18:20;99993.81;;;5.33;76.36
65329;BME280;51941;52.210;5.158;2024-03-02T06:20:48;99994.16;;;5.31;76.40
65329;BME280;51941;52.210;5.158;2024-03-02T06:23:15;99990.72;;;5.31;76.18
65329;BME280;51941;52.210;5.158;2024-03-02T06:25:42;99996.56;;;5.37;76.49
65329;BME280;51941;52.210;5.158;2024-03-02T06:28:08;99998.13;;;5.38;76.10
65329;BME280;51941;52.210;5.158;2024-03-02T06:30:35;100006.53;;;5.40;76.25
65329;BME280;51941;52.210;5.158;2024-03-02T06:33:02;100006.16;;;5.41;76.34
65329;BME280;51941;52.210;5.158;2024-03-02T06:35:29;100002.97;;;5.55;76.01
65329;BME280;51941;52.210;5.158;2024-03-02T06:37:57;100018.28;;;5.58;75.64
65329;BME280;51941;52.210;5.158;2024-03-02T06:40:24;100012.78;;;5.47;75.87
65329;BME280;51941;52.210;5.158;2024-03-02T06:42:50;100012.81;;;5.51;75.97
65329;BME280;51941;52.210;5.158;2024-03-02T06:45:17;100017.06;;;5.52;75.79
65329;BME280;51941;52.210;5.158;2024-03-02T06:47:44;100023.50;;;5.51;75.95
65329;BME280;51941;52.210;5.158;2024-03-02T06:50:11;100024.78;;;5.57;75.58
65329;BME280;51941;52.210;5.158;2024-03-02T06:52:38;100022.56;;;5.63;75.54
65329;BME280;51941;52.210;5.158;2024-03-02T06:55:07;100019.78;;;5.79;75.15
65329;BME280;51941;52.210;5.158;2024-03-02T06:57:33;100024.94;;;5.91;74.81
65329;BME280;51941;52.210;5.158;2024-03-02T07:00:00;100019.53;;;5.87;74.57
65329;BME280;51941;52.210;5.158;2024-03-02T07:02:30;100024.75;;;6.03;74.36
65329;BME280;51941;52.210;5.158;2024-03-02T07:04:57;100022.63;;;6.12;73.92
65329;BME280;51941;52.210;5.158;2024-03-02T07:07:24;100022.50;;;6.05;73.64
65329;BME280;51941;52.210;5.158;2024-03-02T07:09:51;100017.16;;;6.05;73.24
65329;BME280;51941;52.210;5.158;2024-03-02T07:12:19;100022.81;;;6.27;72.99
65329;BME280;51941;52.210;5.158;2024-03-02T07:14:45;100026.16;;;6.47;70.59
65329;BME280;51941;52.210;5.158;2024-03-02T07:17:49;100014.69;;;7.44;68.56
65329;BME280;51941;52.210;5.158;2024-03-02T07:20:16;100018.38;;;8.22;65.87
65329;BME280;51941;52.210;5.158;2024-03-02T07:22:42;100018.72;;;8.86;63.75
65329;BME280;51941;52.210;5.158;2024-03-02T07:25:09;100024.28;;;9.47;62.40
65329;BME280;51941;52.210;5.158;2024-03-02T07:27:37;100028.91;;;9.83;62.07
65329;BME280;51941;52.210;5.158;2024-03-02T07:30:04;100035.84;;;9.98;58.33
65329;BME280;51941;52.210;5.158;2024-03-02T07:32:31;100038.91;;;10.18;57.56
65329;BME280;51941;52.210;5.158;2024-03-02T07:34:58;100037.38;;;10.06;58.03
65329;BME280;51941;52.210;5.158;2024-03-02T07:37:26;100043.91;;;9.87;60.33
65329;BME280;51941;52.210;5.158;2024-03-02T07:39:53;100048.53;;;9.90;60.09
65329;BME280;51941;52.210;5.158;2024-03-02T07:42:20;100046.59;;;9.77;59.06
65329;BME280;51941;52.210;5.158;2024-03-02T07:44:48;100045.81;;;9.69;59.20
65329;BME280;51941;52.210;5.158;2024-03-02T07:47:15;100038.41;;;9.26;59.38
65329;BME280;51941;52.210;5.158;2024-03-02T07:49:42;100053.00;;;9.25;60.22
65329;BME280;51941;52.210;5.158;2024-03-02T07:52:08;100051.25;;;8.70;62.24
65329;BME280;51941;52.210;5.158;2024-03-02T07:54:35;100053.75;;;8.42;62.37
65329;BME280;51941;52.210;5.158;2024-03-02T07:57:02;100055.94;;;8.22;63.10
65329;BME280;51941;52.210;5.158;2024-03-02T07:59:29;100053.59;;;7.68;64.21
65329;BME280;51941;52.210;5.158;2024-03-02T08:01:57;100062.06;;;7.37;65.50
65329;BME280;51941;52.210;5.158;2024-03-02T08:04:24;100059.72;;;7.69;65.19
65329;BME280;51941;52.210;5.158;2024-03-02T08:06:51;100060.09;;;7.71;65.00
65329;BME280;51941;52.210;5.158;2024-03-02T08:09:18;100067.28;;;7.60;64.77
65329;BME280;51941;52.210;5.158;2024-03-02T08:11:45;100063.59;;;7.75;65.11
65329;BME280;51941;52.210;5.158;2024-03-02T08:14:11;100064.59;;;8.04;64.24
65329;BME280;51941;52.210;5.158;2024-03-02T08:16:38;100066.47;;;8.52;63.26
65329;BME280;51941;52.210;5.158;2024-03-02T08:19:06;100067.38;;;8.74;62.08
65329;BME280;51941;52.210;5.158;2024-03-02T08:21:34;100064.47;;;8.38;62.70
65329;BME280;51941;52.210;5.158;2024-03-02T08:24:01;100070.19;;;7.85;64.22
65329;BME280;51941;52.210;5.158;2024-03-02T08:26:28;100064.19;;;7.58;65.37
65329;BME280;51941;52.210;5.158;2024-03-02T08:28:57;100063.09;;;7.62;65.22
65329;BME280;51941;52.210;5.158;2024-03-02T08:31:23;100057.06;;;7.01;67.02
65329;BME280;51941;52.210;5.158;2024-03-02T08:33:50;100063.13;;;7.28;67.20
65329;BME280;51941;52.210;5.158;2024-03-02T08:36:18;100057.09;;;7.39;66.58
65329;BME280;51941;52.210;5.158;2024-03-02T08:38:45;100064.41;;;7.42;66.00
65329;BME280;51941;52.210;5.158;2024-03-02T08:41:12;100044.63;;;7.20;66.97
65329;BME280;51941;52.210;5.158;2024-03-02T08:43:42;100054.00;;;7.37;66.54
65329;BME280;51941;52.210;5.158;2024-03-02T08:46:09;100057.94;;;7.43;66.67
65329;BME280;51941;52.210;5.158;2024-03-02T08:48:36;100047.09;;;7.36;66.54
65329;BME280;51941;52.210;5.158;2024-03-02T08:51:03;100054.50;;;7.46;66.42
65329;BME280;51941;52.210;5.158;2024-03-02T08:53:34;100057.66;;;7.55;65.84
65329;BME280;51941;52.210;5.158;2024-03-02T08:56:01;100048.09;;;7.54;66.21
65329;BME280;51941;52.210;5.158;2024-03-02T08:58:30;100058.63;;;7.40;66.42
65329;BME280;51941;52.210;5.158;2024-03-02T09:00:56;100054.22;;;7.55;66.12
65329;BME280;51941;52.210;5.158;2024-03-02T09:03:23;100058.91;;;7.65;66.23
65329;BME280;51941;52.210;5.158;2024-03-02T09:05:50;100063.13;;;7.66;66.11
65329;BME280;51941;52.210;5.158;2024-03-02T09:08:17;100076.81;;;7.57;66.12
65329;BME280;51941;52.210;5.158;2024-03-02T09:10:45;100065.84;;;7.69;65.70
65329;BME280;51941;52.210;5.158;2024-03-02T09:13:11;100069.75;;;7.76;65.56
65329;BME280;51941;52.210;5.158;2024-03-02T09:15:38;100072.88;;;7.85;65.29
65329;BME280;51941;52.210;5.158;2024-03-02T09:18:06;100067.50;;;7.85;65.21
65329;BME280;51941;52.210;5.158;2024-03-02T09:20:33;100080.88;;;7.81;65.51
65329;BME280;51941;52.210;5.158;2024-03-02T09:23:00;100079.09;;;7.96;64.89
65329;BME280;51941;52.210;5.158;2024-03-02T09:25:26;100073.34;;;7.94;64.62
65329;BME280;51941;52.210;5.158;2024-03-02T09:27:55;100080.63;;;7.94;64.98
65329;BME280;51941;52.210;5.158;2024-03-02T09:30:22;100088.72;;;8.01;63.81
65329;BME280;51941;52.210;5.158;2024-03-02T09:32:48;100092.28;;;8.16;64.36
65329;BME280;51941;52.210;5.158;2024-03-02T09:35:15;100090.81;;;8.22;64.51
65329;BME280;51941;52.210;5.158;2024-03-02T09:37:43;100084.69;;;8.21;63.58
65329;BME280;51941;52.210;5.158;2024-03-02T09:40:11;100085.38;;;8.15;63.70
65329;BME280;51941;52.210;5.158;2024-03-02T09:42:38;100077.75;;;8.20;62.96
65329;BME280;51941;52.210;5.158;2024-03-02T09:45:08;100082.81;;;8.29;63.01
65329;BME280;51941;52.210;5.158;2024-03-02T09:47:35;100081.25;;;8.28;63.11
65329;BME280;51941;52.210;5.158;2024-03-02T09:50:02;100086.34;;;8.44;62.23
65329;BME280;51941;52.210;5.158;2024-03-02T09:52:30;100084.09;;;8.49;62.77
65329;BME280;51941;52.210;5.158;2024-03-02T09:54:57;100079.91;;;8.56;62.35
65329;BME280;51941;52.210;5.158;2024-03-02T09:57:24;100090.72;;;8.63;62.38
65329;BME280;51941;52.210;5.158;2024-03-02T09:59:51;100086.34;;;8.44;61.96
65329;BME280;51941;52.210;5.158;2024-03-02T10:02:19;100083.41;;;8.63;61.77
65329;BME280;51941;52.210;5.158;2024-03-02T10:04:45;100074.53;;;8.52;61.50
65329;BME280;51941;52.210;5.158;2024-03-02T10:07:13;100078.84;;;8.67;61.30
65329;BME280;51941;52.210;5.158;2024-03-02T10:09:40;100081.22;;;8.80;60.83
65329;BME280;51941;52.210;5.158;2024-03-02T10:12:09;100083.50;;;8.81;59.93
65329;BME280;51941;52.210;5.158;2024-03-02T10:14:36;100091.63;;;8.88;60.12
65329;BME280;51941;52.210;5.158;2024-03-02T10:17:04;100082.41;;;8.93;60.08
65329;BME280;51941;52.210;5.158;2024-03-02T10:26:24;100081.34;;;9.12;57.73
65329;BME280;51941;52.210;5.158;2024-03-02T10:32:31;100075.16;;;9.01;57.66
65329;BME280;51941;52.210;5.158;2024-03-02T10:34:58;100075.63;;;9.17;57.55
65329;BME280;51941;52.210;5.158;2024-03-02T10:37:25;100074.47;;;9.22;57.21
65329;BME280;51941;52.210;5.158;2024-03-02T10:39:52;100068.78;;;9.30;56.92
65329;BME280;51941;52.210;5.158;2024-03-02T10:42:21;100071.50;;;9.38;57.51
65329;BME280;51941;52.210;5.158;2024-03-02T10:44:49;100064.97;;;9.42;56.71
65329;BME280;51941;52.210;5.158;2024-03-02T10:47:17;100061.94;;;9.51;56.03
65329;BME280;51941;52.210;5.158;2024-03-02T10:49:46;100061.53;;;9.49;55.60
65329;BME280;51941;52.210;5.158;2024-03-02T10:52:17;100059.63;;;9.53;56.40
65329;BME280;51941;52.210;5.158;2024-03-02T10:54:44;100057.69;;;9.54;56.08
65329;BME280;51941;52.210;5.158;2024-03-02T10:57:13;100050.44;;;9.68;56.68
65329;BME280;51941;52.210;5.158;2024-03-02T10:59:51;100049.28;;;9.69;56.80
65329;BME280;51941;52.210;5.158;2024-03-02T11:02:21;100050.41;;;9.76;56.37
65329;BME280;51941;52.210;5.158;2024-03-02T11:04:49;100047.38;;;9.81;54.94
65329;BME280;51941;52.210;5.158;2024-03-02T11:07:18;100046.97;;;9.79;54.99
65329;BME280;51941;52.210;5.158;2024-03-02T11:09:54;100048.88;;;9.71;55.82
65329;BME280;51941;52.210;5.158;2024-03-02T11:12:28;100041.22;;;9.77;55.63
65329;BME280;51941;52.210;5.158;2024-03-02T11:14:58;100050.81;;;9.81;54.72
65329;BME280;51941;52.210;5.158;2024-03-02T11:17:25;100056.59;;;9.73;55.55
65329;BME280;51941;52.210;5.158;2024-03-02T11:19:53;100053.13;;;9.86;54.91
65329;BME280;51941;52.210;5.158;2024-03-02T11:22:20;100053.50;;;10.03;54.64
65329;BME280;51941;52.210;5.158;2024-03-02T11:24:48;100059.28;;;10.05;53.80
65329;BME280;51941;52.210;5.158;2024-03-02T11:30:52;100035.06;;;10.05;53.13
65329;BME280;51941;52.210;5.158;2024-03-02T11:33:26;100048.91;;;10.10;53.78
65329;BME280;51941;52.210;5.158;2024-03-02T11:35:57;100043.50;;;10.10;53.54
65329;BME280;51941;52.210;5.158;2024-03-02T11:38:29;100040.44;;;10.16;53.50
65329;BME280;51941;52.210;5.158;2024-03-02T11:40:57;100039.28;;;10.24;53.75
65329;BME280;51941;52.210;5.158;2024-03-02T11:43:25;100035.41;;;10.25;53.62
65329;BME280;51941;52.210;5.158;2024-03-02T11:45:58;100046.22;;;10.18;53.85
65329;BME280;51941;52.210;5.158;2024-03-02T11:48:25;100027.72;;;10.34;51.96
65329;BME280;51941;52.210;5.158;2024-03-02T11:50:53;100036.97;;;10.15;52.30
65329;BME280;51941;52.210;5.158;2024-03-02T11:53:20;100032.34;;;10.26;52.40
65329;BME280;51941;52.210;5.158;2024-03-02T11:55:47;100027.38;;;10.14;52.15
65329;BME280;51941;52.210;5.158;2024-03-02T11:58:16;100026.19;;;10.29;53.04
65329;BME280;51941;52.210;5.158;2024-03-02T12:00:46;100033.88;;;10.31;53.19
65329;BME280;51941;52.210;5.158;2024-03-02T12:03:14;100030.41;;;10.41;52.76
65329;BME280;51941;52.210;5.158;2024-03-02T12:05:42;100032.31;;;10.41;52.39
65329;BME280;51941;52.210;5.158;2024-03-02T12:08:09;100022.72;;;10.29;51.75
65329;BME280;51941;52.210;5.158;2024-03-02T12:10:36;100014.63;;;10.40;52.38
65329;BME280;51941;52.210;5.158;2024-03-02T12:13:04;100016.16;;;10.48;51.90
65329;BME280;51941;52.210;5.158;2024-03-02T12:15:34;100010.78;;;10.41;51.29
65329;BME280;51941;52.210;5.158;2024-03-02T12:18:02;100005.00;;;10.39;51.92
65329;BME280;51941;52.210;5.158;2024-03-02T12:20:32;100002.31;;;10.49;52.32
65329;BME280;51941;52.210;5.158;2024-03-02T12:23:00;99998.81;;;10.60;51.51
65329;BME280;51941;52.210;5.158;2024-03-02T12:25:28;99994.94;;;10.64;51.91
65329;BME280;51941;52.210;5.158;2024-03-02T12:27:59;99989.16;;;10.62;51.38
65329;BME280;51941;52.210;5.158;2024-03-02T12:30:27;99972.16;;;10.83;50.89
65329;BME280;51941;52.210;5.158;2024-03-02T12:32:58;99974.88;;;10.76;50.86
65329;BME280;51941;52.210;5.158;2024-03-02T12:35:25;99972.91;;;10.87;50.44
65329;BME280;51941;52.210;5.158;2024-03-02T12:37:54;99981.75;;;10.88;50.45
65329;BME280;51941;52.210;5.158;2024-03-02T12:40:21;99970.97;;;10.95;50.24
65329;BME280;51941;52.210;5.158;2024-03-02T12:42:49;99965.22;;;10.89;50.25
65329;BME280;51941;52.210;5.158;2024-03-02T12:45:17;99972.47;;;11.00;50.10
65329;BME280;51941;52.210;5.158;2024-03-02T12:47:49;99966.66;;;11.08;50.02
65329;BME280;51941;52.210;5.158;2024-03-02T12:50:17;99959.72;;;11.11;48.57
65329;BME280;51941;52.210;5.158;2024-03-02T12:52:44;99961.63;;;11.14;48.23
65329;BME280;51941;52.210;5.158;2024-03-02T12:55:19;99971.63;;;11.14;47.51
65329;BME280;51941;52.210;5.158;2024-03-02T12:57:47;99972.41;;;11.18;47.89
65329;BME280;51941;52.210;5.158;2024-03-02T13:00:14;99964.75;;;11.09;46.96
65329;BME280;51941;52.210;5.158;2024-03-02T13:02:41;99970.13;;;11.05;46.88
65329;BME280;51941;52.210;5.158;2024-03-02T13:05:08;99960.06;;;11.20;47.35
65329;BME280;51941;52.210;5.158;2024-03-02T13:07:36;99963.97;;;11.12;46.76
65329;BME280;51941;52.210;5.158;2024-03-02T13:10:04;99953.03;;;11.34;46.84
65329;BME280;51941;52.210;5.158;2024-03-02T13:12:33;99951.13;;;11.31;46.88
65329;BME280;51941;52.210;5.158;2024-03-02T13:14:59;99960.78;;;11.24;46.28
65329;BME280;51941;52.210;5.158;2024-03-02T13:17:28;99949.97;;;11.32;46.75
65329;BME280;51941;52.210;5.158;2024-03-02T13:19:56;99960.69;;;11.39;46.28
65329;BME280;51941;52.210;5.158;2024-03-02T13:22:24;99954.50;;;11.42;46.41